createdAt,value
2022-07-28T00:00:57.070Z,16.30
2022-07-28T00:03:58.545Z,16.10
2022-07-28T00:06:46.385Z,16.10
2022-07-28T00:12:40.567Z,16.00
2022-07-28T00:15:28.328Z,16.00
2022-07-28T00:18:26.001Z,16.00
2022-07-28T00:21:17.119Z,16.00
2022-07-28T00:24:04.992Z,16.10
2022-07-28T00:26:55.337Z,16.00
2022-07-28T00:29:49.873Z,15.90
2022-07-28T00:32:41.224Z,15.90
2022-07-28T00:35:31.824Z,15.80
2022-07-28T00:38:20.170Z,15.90
2022-07-28T00:41:12.020Z,15.80
2022-07-28T00:43:59.605Z,15.80
2022-07-28T00:46:53.574Z,15.80
2022-07-28T00:49:45.974Z,15.80
2022-07-28T00:52:37.155Z,15.80
2022-07-28T00:55:30.866Z,15.80
2022-07-28T00:58:29.005Z,15.70
2022-07-28T01:01:27.862Z,15.80
2022-07-28T01:04:21.259Z,15.70
2022-07-28T01:08:02.549Z,15.80
2022-07-28T01:11:58.094Z,15.70
2022-07-28T01:15:17.397Z,15.70
2022-07-28T01:18:23.206Z,15.50
2022-07-28T01:21:27.081Z,15.40
2022-07-28T01:24:32.000Z,15.50
2022-07-28T01:27:52.404Z,15.70
2022-07-28T01:30:44.436Z,15.60
2022-07-28T01:33:45.031Z,15.50
2022-07-28T01:36:39.568Z,15.60
2022-07-28T01:39:35.237Z,15.50
2022-07-28T01:42:30.342Z,15.50
2022-07-28T01:45:18.979Z,15.50
2022-07-28T01:48:08.792Z,15.50
2022-07-28T01:51:00.403Z,15.40
2022-07-28T01:53:56.933Z,15.50
2022-07-28T01:56:48.053Z,15.50
2022-07-28T01:59:44.396Z,15.40
2022-07-28T02:02:37.932Z,15.40
2022-07-28T02:05:30.261Z,15.40
2022-07-28T02:08:28.784Z,15.40
2022-07-28T02:11:35.356Z,15.40
2022-07-28T02:14:28.045Z,15.40
2022-07-28T02:17:20.903Z,15.40
2022-07-28T03:01:05.083Z,15.20
2022-07-28T03:03:55.474Z,15.30
2022-07-28T03:06:46.746Z,15.20
2022-07-28T03:10:04.069Z,15.20
2022-07-28T03:12:57.405Z,15.20
2022-07-28T03:15:50.467Z,15.10
2022-07-28T03:18:53.165Z,15.30
2022-07-28T03:21:45.820Z,15.20
2022-07-28T03:24:42.836Z,15.20
2022-07-28T03:27:40.307Z,15.30
2022-07-28T03:30:32.270Z,15.20
2022-07-28T03:33:20.204Z,15.30
2022-07-28T03:36:15.683Z,15.30
2022-07-28T03:39:06.731Z,15.20
2022-07-28T03:41:56.253Z,15.20
2022-07-28T03:44:49.799Z,15.20
2022-07-28T03:47:46.713Z,15.40
2022-07-28T03:50:35.421Z,15.20
2022-07-28T03:53:27.786Z,15.20
2022-07-28T03:56:15.963Z,15.20
2022-07-28T04:02:15.994Z,15.20
2022-07-28T04:05:04.472Z,15.30
2022-07-28T04:08:01.020Z,15.20
2022-07-28T04:10:53.810Z,15.10
2022-07-28T04:13:51.186Z,15.10
2022-07-28T04:16:49.129Z,15.00
2022-07-28T04:19:36.938Z,15.10
2022-07-28T04:22:25.797Z,15.10
2022-07-28T04:25:22.904Z,15.10
2022-07-28T04:28:10.777Z,15.00
2022-07-28T04:30:58.326Z,15.10
2022-07-28T04:33:48.310Z,15.10
2022-07-28T04:36:44.931Z,15.00
2022-07-28T04:39:32.457Z,15.10
2022-07-28T04:42:23.139Z,15.10
2022-07-28T04:45:14.548Z,15.20
2022-07-28T04:48:02.519Z,15.20
2022-07-28T04:50:51.475Z,15.20
2022-07-28T04:53:39.134Z,15.10
2022-07-28T04:56:30.096Z,15.10
2022-07-28T04:59:20.691Z,15.20
2022-07-28T05:59:35.608Z,16.10
2022-07-28T06:02:33.603Z,16.00
2022-07-28T06:05:24.098Z,16.30
2022-07-28T06:08:14.697Z,16.50
2022-07-28T06:11:11.101Z,16.40
2022-07-28T06:14:06.778Z,16.90
2022-07-28T06:16:58.988Z,16.80
2022-07-28T06:19:46.685Z,16.80
2022-07-28T06:22:51.234Z,16.60
2022-07-28T06:25:47.336Z,16.60
2022-07-28T06:28:35.173Z,16.50
2022-07-28T06:31:27.926Z,16.30
2022-07-28T06:34:18.839Z,16.20
2022-07-28T06:37:38.033Z,16.30
2022-07-28T06:40:28.918Z,16.10
2022-07-28T06:43:16.786Z,16.30
2022-07-28T06:46:04.571Z,16.50
2022-07-28T06:48:52.594Z,16.40
2022-07-28T06:51:40.499Z,16.50
2022-07-28T06:54:28.086Z,17.00
2022-07-28T06:57:16.792Z,17.00
2022-07-28T07:00:08.451Z,16.80
2022-07-28T07:03:00.589Z,17.00
2022-07-28T07:05:52.966Z,16.90
2022-07-28T07:08:40.825Z,16.50
2022-07-28T07:11:30.036Z,16.70
2022-07-28T07:14:36.343Z,16.80
2022-07-28T07:17:23.999Z,16.70
2022-07-28T07:20:19.560Z,16.80
2022-07-28T07:23:10.259Z,16.50
2022-07-28T07:25:58.397Z,16.60
2022-07-28T07:28:47.966Z,16.60
2022-07-28T07:31:37.344Z,16.90
2022-07-28T07:34:28.272Z,16.70
2022-07-28T07:37:17.654Z,16.90
2022-07-28T07:40:10.093Z,17.40
2022-07-28T07:43:00.452Z,17.70
2022-07-28T07:45:50.653Z,18.10
2022-07-28T07:48:38.452Z,17.60
2022-07-28T07:51:26.534Z,17.70
2022-07-28T07:54:14.757Z,18.00
2022-07-28T07:57:04.955Z,18.40
2022-07-28T07:59:56.729Z,18.40
2022-07-28T08:02:44.527Z,18.60
2022-07-28T08:06:13.047Z,18.10
2022-07-28T08:09:06.600Z,18.00
2022-07-28T08:12:03.940Z,18.60
2022-07-28T08:16:00.640Z,18.40
2022-07-28T08:18:17.638Z,18.70
2022-07-28T08:21:05.419Z,18.50
2022-07-28T08:23:56.288Z,18.50
2022-07-28T08:26:44.079Z,18.60
2022-07-28T08:29:33.848Z,18.80
2022-07-28T08:32:29.342Z,18.70
2022-07-28T08:35:36.167Z,18.80
2022-07-28T08:38:55.614Z,18.30
2022-07-28T08:42:00.574Z,18.50
2022-07-28T08:45:16.548Z,18.80
2022-07-28T08:48:12.626Z,18.60
2022-07-28T08:51:03.579Z,18.20
2022-07-28T08:53:51.485Z,18.10
2022-07-28T08:56:47.826Z,18.30
2022-07-28T08:59:37.942Z,18.40
2022-07-28T09:02:29.923Z,17.90
2022-07-28T09:05:20.977Z,18.40
2022-07-28T09:08:12.628Z,18.80
2022-07-28T09:11:00.544Z,18.80
2022-07-28T09:13:54.145Z,19.20
2022-07-28T09:16:41.994Z,19.50
2022-07-28T09:19:34.440Z,19.30
2022-07-28T09:22:36.664Z,19.40
2022-07-28T09:25:30.800Z,19.70
2022-07-28T09:28:31.548Z,20.00
2022-07-28T09:31:26.745Z,19.60
2022-07-28T09:34:15.309Z,19.50
2022-07-28T09:37:08.727Z,19.20
2022-07-28T09:40:03.901Z,19.30
2022-07-28T09:43:02.853Z,19.50
2022-07-28T09:46:08.369Z,19.60
2022-07-28T09:48:58.072Z,19.40
2022-07-28T09:52:17.088Z,20.00
2022-07-28T09:55:17.293Z,19.80
2022-07-28T09:58:12.275Z,19.90
2022-07-28T10:01:16.217Z,19.60
2022-07-28T10:04:04.707Z,20.10
2022-07-28T10:07:02.017Z,20.00
2022-07-28T10:10:01.730Z,20.10
2022-07-28T10:12:52.866Z,19.90
2022-07-28T10:16:02.687Z,20.00
2022-07-28T10:18:50.947Z,20.20
2022-07-28T10:21:51.598Z,19.50
2022-07-28T10:24:40.496Z,19.80
2022-07-28T10:27:29.345Z,20.30
2022-07-28T10:30:21.372Z,19.80
2022-07-28T10:33:36.423Z,19.70
2022-07-28T10:36:33.558Z,19.80
2022-07-28T10:39:25.766Z,20.10
2022-07-28T10:42:27.500Z,20.20
2022-07-28T10:45:41.949Z,20.80
2022-07-28T10:48:38.071Z,20.30
2022-07-28T10:51:28.249Z,19.80
2022-07-28T10:54:41.067Z,19.90
2022-07-28T10:57:30.903Z,20.00
2022-07-28T11:00:26.848Z,20.00
2022-07-28T11:03:41.196Z,20.00
2022-07-28T11:06:35.049Z,20.10
2022-07-28T11:09:25.737Z,19.90
2022-07-28T11:12:46.209Z,20.20
2022-07-28T11:15:40.176Z,20.40
2022-07-28T11:18:28.552Z,20.80
2022-07-28T11:21:20.682Z,20.60
2022-07-28T11:24:17.920Z,20.30
2022-07-28T11:27:08.794Z,20.60
2022-07-28T11:33:02.750Z,20.60
2022-07-28T11:35:56.326Z,20.80
2022-07-28T11:39:42.967Z,20.50
2022-07-28T11:42:37.157Z,20.50
2022-07-28T11:45:38.444Z,20.60
2022-07-28T11:48:27.746Z,20.40
2022-07-28T11:51:22.129Z,20.60
2022-07-28T11:54:19.147Z,21.10
2022-07-28T11:57:12.123Z,20.80
2022-07-28T12:00:15.639Z,20.40
2022-07-28T12:03:38.585Z,20.90
2022-07-28T12:06:38.261Z,21.40
2022-07-28T12:09:42.614Z,21.20
2022-07-28T12:12:38.575Z,21.60
2022-07-28T12:15:38.390Z,22.00
2022-07-28T12:18:43.024Z,22.00
2022-07-28T12:21:51.756Z,22.00
2022-07-28T12:24:48.151Z,21.90
2022-07-28T12:27:37.727Z,22.10
2022-07-28T12:30:41.506Z,21.90
2022-07-28T12:33:32.990Z,22.20
2022-07-28T12:36:25.251Z,22.50
2022-07-28T12:39:29.364Z,22.60
2022-07-28T12:42:20.870Z,22.30
2022-07-28T12:45:13.079Z,22.40
2022-07-28T12:48:11.188Z,22.60
2022-07-28T12:51:01.573Z,22.50
2022-07-28T12:53:55.746Z,22.80
2022-07-28T12:56:52.418Z,23.10
2022-07-28T12:59:44.765Z,23.60
2022-07-28T13:02:59.308Z,23.00
2022-07-28T13:06:03.032Z,22.30
2022-07-28T13:09:33.035Z,22.40
2022-07-28T13:12:29.418Z,22.40
2022-07-28T13:15:21.020Z,22.20
2022-07-28T13:18:24.593Z,22.10
2022-07-28T13:21:16.304Z,21.90
2022-07-28T13:27:11.608Z,21.60
2022-07-28T13:30:00.163Z,21.30
2022-07-28T13:33:00.710Z,21.30
2022-07-28T13:35:50.441Z,21.40
2022-07-28T13:38:44.453Z,21.50
2022-07-28T13:41:56.232Z,22.10
2022-07-28T13:44:46.914Z,22.40
2022-07-28T13:47:44.271Z,22.50
2022-07-28T13:50:38.011Z,21.90
2022-07-28T13:53:26.459Z,21.80
2022-07-28T13:56:14.176Z,22.40
2022-07-28T13:59:07.268Z,22.60
2022-07-28T14:01:56.837Z,22.60
2022-07-28T14:04:50.045Z,22.70
2022-07-28T14:07:48.143Z,22.70
2022-07-28T14:10:56.835Z,22.30
2022-07-28T14:13:59.886Z,23.20
2022-07-28T14:16:57.237Z,22.90
2022-07-28T14:19:57.569Z,22.90
2022-07-28T14:22:46.939Z,23.10
2022-07-28T14:25:49.418Z,23.10
2022-07-28T14:28:42.124Z,22.60
2022-07-28T14:31:30.289Z,22.10
2022-07-28T14:34:21.352Z,21.90
2022-07-28T14:37:13.153Z,21.80
2022-07-28T14:40:04.303Z,21.70
2022-07-28T14:42:58.556Z,21.70
2022-07-28T14:46:00.402Z,22.10
2022-07-28T14:48:58.178Z,21.90
2022-07-28T14:51:48.799Z,21.80
2022-07-28T14:54:39.645Z,21.80
2022-07-28T14:57:51.946Z,22.10
2022-07-28T15:00:41.937Z,22.20
2022-07-28T15:03:35.722Z,22.80
2022-07-28T15:06:45.972Z,22.20
2022-07-28T15:09:47.399Z,22.40
2022-07-28T15:12:37.981Z,22.50
2022-07-28T15:15:39.402Z,22.40
2022-07-28T15:18:32.641Z,22.40
2022-07-28T15:21:20.781Z,22.00
2022-07-28T15:24:12.168Z,22.10
2022-07-28T15:27:07.454Z,21.70
2022-07-28T15:29:55.897Z,21.40
2022-07-28T15:32:57.026Z,21.40
2022-07-28T15:35:56.584Z,21.60
2022-07-28T15:38:47.705Z,21.60
2022-07-28T15:41:37.233Z,21.50
2022-07-28T15:44:26.050Z,21.30
2022-07-28T15:47:15.070Z,21.40
2022-07-28T15:50:03.741Z,21.80
2022-07-28T15:52:55.154Z,21.80
2022-07-28T15:55:47.511Z,21.90
2022-07-28T15:58:48.858Z,22.10
2022-07-28T16:01:52.717Z,21.60
2022-07-28T16:04:52.214Z,21.40
2022-07-28T16:07:50.736Z,21.20
2022-07-28T16:10:41.169Z,21.00
2022-07-28T16:13:36.806Z,21.20
2022-07-28T16:16:29.201Z,21.10
2022-07-28T16:19:38.697Z,20.90
2022-07-28T16:22:25.380Z,20.60
2022-07-28T16:25:20.578Z,20.70
2022-07-28T16:28:12.504Z,20.80
2022-07-28T16:31:02.520Z,20.90
2022-07-28T16:33:50.739Z,20.60
2022-07-28T16:36:41.829Z,20.70
2022-07-28T16:39:32.697Z,20.60
2022-07-28T16:42:23.090Z,20.40
2022-07-28T16:45:12.410Z,20.60
2022-07-28T16:48:04.137Z,20.60
2022-07-28T16:50:55.170Z,20.60
2022-07-28T16:53:43.177Z,20.60
2022-07-28T16:56:30.847Z,20.50
2022-07-28T16:59:19.475Z,20.50
2022-07-28T17:02:10.341Z,20.40
2022-07-28T17:05:00.692Z,20.60
2022-07-28T17:07:48.374Z,20.50
2022-07-28T17:10:36.533Z,20.50
2022-07-28T17:13:28.154Z,20.50
2022-07-28T17:16:15.746Z,20.40
2022-07-28T17:19:05.163Z,20.40
2022-07-28T17:22:00.169Z,20.30
2022-07-28T17:24:48.331Z,20.40
2022-07-28T17:27:38.443Z,20.50
2022-07-28T17:30:30.074Z,20.20
2022-07-28T17:33:19.168Z,20.10
2022-07-28T17:36:06.930Z,20.20
2022-07-28T17:39:03.641Z,20.30
2022-07-28T17:41:53.503Z,20.30
2022-07-28T17:44:42.307Z,20.20
2022-07-28T17:47:35.904Z,20.20
2022-07-28T17:50:24.546Z,20.20
2022-07-28T17:53:18.368Z,20.10
2022-07-28T17:56:10.471Z,20.10
2022-07-28T17:58:58.832Z,20.20
2022-07-28T18:01:49.391Z,20.20
2022-07-28T18:04:36.902Z,20.10
2022-07-28T18:10:27.226Z,20.20
2022-07-28T18:13:16.444Z,20.00
2022-07-28T18:16:07.300Z,20.10
2022-07-28T18:18:56.287Z,20.20
2022-07-28T18:21:51.772Z,20.10
2022-07-28T18:24:46.015Z,20.00
2022-07-28T18:30:36.246Z,20.00
2022-07-28T18:33:29.691Z,20.20
2022-07-28T18:36:23.838Z,20.10
2022-07-28T18:39:13.239Z,20.20
2022-07-28T18:45:11.515Z,19.90
2022-07-28T18:48:02.206Z,20.00
2022-07-28T18:51:01.291Z,20.00
2022-07-28T18:56:50.991Z,19.90
2022-07-28T19:00:33.730Z,19.90
2022-07-28T19:03:41.926Z,20.00
2022-07-28T19:06:32.427Z,19.90
2022-07-28T19:09:28.611Z,19.90
2022-07-28T19:12:31.362Z,19.80
2022-07-28T19:15:25.941Z,19.80
2022-07-28T19:18:13.980Z,19.70
2022-07-28T19:21:14.012Z,19.70
2022-07-28T19:24:06.699Z,19.60
2022-07-28T19:27:15.876Z,19.50
2022-07-28T19:30:13.853Z,19.60
2022-07-28T19:33:06.305Z,19.50
2022-07-28T19:35:56.174Z,19.70
2022-07-28T19:38:54.463Z,19.50
2022-07-28T19:41:42.146Z,19.50
2022-07-28T19:44:32.371Z,19.40
2022-07-28T19:47:23.658Z,19.40
2022-07-28T19:50:15.319Z,19.30
2022-07-28T19:53:03.466Z,19.40
2022-07-28T19:55:58.660Z,19.30
2022-07-28T19:58:48.275Z,19.40
2022-07-28T20:01:52.639Z,19.30
2022-07-28T20:04:48.888Z,19.20
2022-07-28T20:08:06.024Z,19.10
2022-07-28T20:10:57.851Z,18.90
2022-07-28T20:13:45.575Z,18.90
2022-07-28T20:16:33.593Z,19.00
2022-07-28T20:19:21.768Z,19.00
2022-07-28T20:22:09.904Z,18.90
2022-07-28T20:24:57.530Z,18.90
2022-07-28T20:27:49.405Z,18.90
2022-07-28T20:30:37.244Z,18.80
2022-07-28T20:33:34.658Z,18.70
2022-07-28T20:36:26.327Z,18.80
2022-07-28T20:39:44.473Z,18.70
2022-07-28T20:42:37.663Z,18.70
2022-07-28T20:45:26.678Z,18.70
2022-07-28T20:48:24.554Z,18.70
2022-07-28T20:51:16.048Z,18.70
2022-07-28T20:54:03.701Z,18.60
2022-07-28T20:56:57.242Z,18.60
2022-07-28T20:59:45.200Z,18.60
2022-07-28T21:02:33.410Z,18.60
2022-07-28T21:05:34.696Z,18.50
2022-07-28T21:08:28.659Z,18.40
2022-07-28T21:11:16.452Z,18.50
